createdAt,value
2018-06-11T00:00:23.062Z,88.20
2018-06-11T00:00:54.449Z,88.20
2018-06-11T00:01:25.826Z,88.20
2018-06-11T00:01:57.212Z,88.20
2018-06-11T00:02:28.598Z,88.20
2018-06-11T00:02:59.986Z,88.30
2018-06-11T00:03:31.373Z,88.20
2018-06-11T00:04:02.826Z,88.20
2018-06-11T00:04:34.218Z,88.20
2018-06-11T00:05:05.625Z,88.20
2018-06-11T00:05:37.022Z,88.20
2018-06-11T00:06:08.415Z,88.20
2018-06-11T00:06:39.804Z,88.20
2018-06-11T00:07:11.190Z,88.20
2018-06-11T00:07:42.579Z,88.20
2018-06-11T00:08:13.964Z,89.00
2018-06-11T00:08:45.417Z,88.20
2018-06-11T00:09:16.795Z,88.20
2018-06-11T00:09:48.173Z,88.20
2018-06-11T00:10:19.553Z,88.20
2018-06-11T00:10:50.935Z,88.80
2018-06-11T00:11:22.315Z,88.20
2018-06-11T00:11:53.708Z,88.20
2018-06-11T00:12:25.090Z,88.20
2018-06-11T00:12:56.470Z,88.20
2018-06-11T00:13:27.854Z,88.20
2018-06-11T00:13:59.295Z,88.20
2018-06-11T00:14:30.682Z,88.20
2018-06-11T00:15:02.066Z,88.20
2018-06-11T00:15:33.455Z,88.20
2018-06-11T00:16:04.850Z,88.20
2018-06-11T00:16:36.242Z,88.20
2018-06-11T00:17:07.632Z,88.20
2018-06-11T00:17:39.013Z,88.80
2018-06-11T00:18:10.401Z,88.20
2018-06-11T00:18:41.790Z,88.20
2018-06-11T00:19:13.899Z,88.20
2018-06-11T00:19:45.284Z,88.20
2018-06-11T00:20:16.668Z,88.20
2018-06-11T00:20:48.058Z,88.20
2018-06-11T00:21:19.447Z,88.20
2018-06-11T00:21:50.838Z,88.20
2018-06-11T00:22:22.220Z,88.20
2018-06-11T00:22:53.630Z,88.20
2018-06-11T00:23:25.022Z,88.20
2018-06-11T00:23:56.469Z,88.20
2018-06-11T00:24:27.854Z,89.20
2018-06-11T00:24:59.244Z,88.20
2018-06-11T00:25:30.621Z,88.20
2018-06-11T00:26:02.019Z,88.20
2018-06-11T00:27:05.174Z,88.20
2018-06-11T00:27:36.558Z,88.20
2018-06-11T00:28:07.953Z,88.20
2018-06-11T00:28:39.337Z,88.20
2018-06-11T00:29:10.782Z,88.20
2018-06-11T00:29:42.191Z,88.20
2018-06-11T00:30:13.579Z,88.20
2018-06-11T00:30:44.963Z,88.20
2018-06-11T00:31:16.356Z,88.20
2018-06-11T00:31:47.747Z,88.20
2018-06-11T00:32:19.144Z,88.20
2018-06-11T00:32:50.534Z,88.20
2018-06-11T00:33:21.926Z,88.20
2018-06-11T00:33:53.311Z,88.20
2018-06-11T00:34:24.750Z,88.20
2018-06-11T00:34:56.130Z,88.20
2018-06-11T00:35:27.516Z,88.20
2018-06-11T00:35:58.911Z,88.80
2018-06-11T00:37:02.067Z,88.20
2018-06-11T00:37:33.463Z,88.20
2018-06-11T00:38:04.858Z,88.20
2018-06-11T00:39:08.010Z,88.30
2018-06-11T00:39:39.455Z,88.20
2018-06-11T00:40:10.839Z,88.20
2018-06-11T00:40:42.222Z,88.20
2018-06-11T00:41:13.615Z,88.20
2018-06-11T00:41:44.997Z,88.20
2018-06-11T00:42:16.398Z,88.20
2018-06-11T00:42:47.783Z,88.20
2018-06-11T00:43:19.166Z,88.20
2018-06-11T00:43:50.563Z,88.20
2018-06-11T00:44:22.005Z,88.20
2018-06-11T00:44:53.383Z,87.60
2018-06-11T00:45:24.765Z,88.20
2018-06-11T00:45:56.142Z,88.20
2018-06-11T00:46:27.527Z,88.20
2018-06-11T00:46:58.909Z,88.20
2018-06-11T00:47:30.295Z,88.20
2018-06-11T00:48:01.690Z,88.20
2018-06-11T00:48:33.081Z,88.20
2018-06-11T00:49:04.474Z,88.20
2018-06-11T00:49:35.934Z,88.20
2018-06-11T00:50:07.325Z,88.20
2018-06-11T00:50:38.706Z,88.20
2018-06-11T00:51:10.099Z,88.20
2018-06-11T00:51:41.495Z,88.20
2018-06-11T00:52:12.877Z,88.20
2018-06-11T00:52:44.262Z,88.20
2018-06-11T00:53:15.649Z,88.20
2018-06-11T00:53:47.029Z,88.20
2018-06-11T00:54:18.412Z,88.20
2018-06-11T00:54:49.852Z,88.20
2018-06-11T00:55:21.229Z,88.20
2018-06-11T00:55:52.616Z,88.20
2018-06-11T00:56:24.012Z,88.20
2018-06-11T00:56:55.402Z,88.20
2018-06-11T00:57:26.796Z,88.20
2018-06-11T00:57:58.178Z,88.20
2018-06-11T00:58:29.565Z,88.50
2018-06-11T00:59:00.950Z,88.20
2018-06-11T00:59:32.335Z,88.20
2018-06-11T01:00:03.781Z,88.20
2018-06-11T01:00:35.166Z,88.20
2018-06-11T01:01:06.553Z,88.20
2018-06-11T01:01:37.941Z,88.20
2018-06-11T01:02:09.326Z,88.20
2018-06-11T01:02:40.707Z,88.20
2018-06-11T01:03:12.089Z,88.20
2018-06-11T01:03:43.480Z,88.20
2018-06-11T01:04:14.868Z,88.20
2018-06-11T01:04:46.250Z,88.20
2018-06-11T01:05:17.699Z,88.20
2018-06-11T01:05:49.087Z,88.20
2018-06-11T01:06:20.464Z,88.20
2018-06-11T01:06:51.853Z,88.20
2018-06-11T01:07:23.237Z,88.20
2018-06-11T01:07:54.625Z,88.20
2018-06-11T01:08:26.016Z,88.20
2018-06-11T01:08:57.404Z,88.20
2018-06-11T01:09:28.790Z,88.20
2018-06-11T01:10:00.191Z,88.20
2018-06-11T01:10:31.635Z,88.20
2018-06-11T01:11:03.023Z,88.20
2018-06-11T01:11:34.406Z,88.20
2018-06-11T01:12:05.797Z,88.20
2018-06-11T01:12:37.179Z,88.20
2018-06-11T01:13:08.567Z,88.20
2018-06-11T01:13:39.955Z,88.20
2018-06-11T01:14:11.339Z,88.20
2018-06-11T01:14:42.732Z,88.20
2018-06-11T01:15:14.121Z,88.20
2018-06-11T01:15:45.562Z,88.20
2018-06-11T01:16:16.941Z,88.20
2018-06-11T01:16:48.328Z,88.20
2018-06-11T01:17:19.711Z,88.20
2018-06-11T01:17:51.095Z,88.20
2018-06-11T01:18:22.478Z,88.20
2018-06-11T01:18:53.870Z,88.20
2018-06-11T01:19:25.256Z,88.20
2018-06-11T01:19:56.645Z,88.20
2018-06-11T01:20:28.096Z,88.20
2018-06-11T01:20:59.476Z,88.20
2018-06-11T01:21:30.854Z,88.20
2018-06-11T01:22:02.234Z,88.20
2018-06-11T01:22:33.614Z,88.20
2018-06-11T01:23:05.007Z,88.20
2018-06-11T01:23:36.397Z,88.20
2018-06-11T01:24:07.783Z,88.20
2018-06-11T01:24:39.166Z,88.20
2018-06-11T01:25:10.552Z,88.20
2018-06-11T01:25:41.998Z,88.20
2018-06-11T01:26:13.382Z,88.20
2018-06-11T01:26:44.761Z,88.20
2018-06-11T01:27:16.148Z,88.20
2018-06-11T01:27:47.533Z,88.20
2018-06-11T01:28:18.920Z,88.20
2018-06-11T01:28:50.303Z,88.20
2018-06-11T01:29:21.690Z,88.20
2018-06-11T01:29:53.081Z,88.20
2018-06-11T01:30:24.471Z,88.20
2018-06-11T01:30:55.913Z,88.20
2018-06-11T01:31:27.303Z,88.20
2018-06-11T01:31:58.691Z,88.20
2018-06-11T01:32:30.076Z,88.20
2018-06-11T01:33:01.464Z,88.20
2018-06-11T01:33:32.858Z,88.20
2018-06-11T01:34:04.250Z,88.20
2018-06-11T01:34:35.638Z,88.10
2018-06-11T01:35:07.025Z,88.20
2018-06-11T01:35:38.479Z,88.10
2018-06-11T01:36:09.870Z,88.20
2018-06-11T01:36:41.254Z,88.20
2018-06-11T01:37:12.643Z,88.20
2018-06-11T01:37:44.022Z,88.20
2018-06-11T01:38:15.411Z,88.10
2018-06-11T01:38:46.793Z,88.20
2018-06-11T01:39:18.181Z,88.10
2018-06-11T01:39:49.564Z,88.10
2018-06-11T01:40:20.956Z,88.10
2018-06-11T01:40:52.395Z,88.10
2018-06-11T01:41:23.779Z,88.10
2018-06-11T01:41:55.166Z,88.10
2018-06-11T01:42:26.549Z,88.10
2018-06-11T01:42:57.933Z,88.60
2018-06-11T01:43:29.321Z,88.10
2018-06-11T01:44:00.705Z,88.10
2018-06-11T01:44:32.089Z,88.10
2018-06-11T01:45:03.496Z,88.10
2018-06-11T01:45:34.877Z,88.10
2018-06-11T01:46:06.271Z,88.10
2018-06-11T01:46:37.657Z,88.10
2018-06-11T01:47:09.044Z,88.10
2018-06-11T01:47:40.428Z,88.10
2018-06-11T01:48:11.825Z,88.10
2018-06-11T01:48:43.206Z,88.20
2018-06-11T01:49:14.633Z,88.10
2018-06-11T01:49:46.018Z,88.10
2018-06-11T01:50:17.397Z,88.10
2018-06-11T01:50:48.851Z,88.10
2018-06-11T01:51:20.233Z,88.10
2018-06-11T01:51:51.628Z,88.10
2018-06-11T01:52:23.016Z,88.10
2018-06-11T01:52:54.402Z,88.10
2018-06-11T01:53:25.788Z,88.10
2018-06-11T01:53:57.172Z,88.10
2018-06-11T01:54:28.553Z,88.10
2018-06-11T01:54:59.934Z,88.10
2018-06-11T01:55:31.318Z,88.10
2018-06-11T01:56:34.476Z,88.20
2018-06-11T01:57:05.869Z,88.20
2018-06-11T01:57:37.255Z,88.10
2018-06-11T01:58:08.646Z,88.20
2018-06-11T01:58:40.031Z,88.10
2018-06-11T01:59:11.408Z,88.10
2018-06-11T01:59:42.790Z,88.10
2018-06-11T02:00:14.176Z,88.10
2018-06-11T02:00:45.567Z,88.10
2018-06-11T02:01:16.954Z,88.10
2018-06-11T02:01:48.339Z,88.10
2018-06-11T02:02:19.720Z,88.10
2018-06-11T02:02:51.106Z,88.10
2018-06-11T02:03:22.492Z,88.10
2018-06-11T02:03:53.870Z,88.10
2018-06-11T02:04:25.253Z,88.10
2018-06-11T02:04:56.643Z,88.10
2018-06-11T02:05:28.034Z,88.10
2018-06-11T02:05:59.486Z,88.10
2018-06-11T02:06:30.876Z,88.10
2018-06-11T02:07:02.262Z,88.10
2018-06-11T02:07:33.643Z,88.10
2018-06-11T02:08:05.027Z,88.10
2018-06-11T02:08:36.414Z,88.10
2018-06-11T02:09:07.793Z,88.10
2018-06-11T02:09:39.183Z,88.10
2018-06-11T02:10:10.564Z,88.10
2018-06-11T02:10:41.954Z,88.10
2018-06-11T02:11:13.402Z,88.10
2018-06-11T02:11:44.789Z,88.40
2018-06-11T02:12:16.173Z,88.10
2018-06-11T02:12:47.558Z,88.10
2018-06-11T02:13:18.946Z,88.10
2018-06-11T02:13:50.329Z,88.10
2018-06-11T02:14:21.714Z,88.10
2018-06-11T02:14:53.096Z,88.10
2018-06-11T02:15:24.481Z,88.30
2018-06-11T02:15:55.864Z,88.10
2018-06-11T02:16:27.306Z,87.90
2018-06-11T02:16:58.698Z,88.10
2018-06-11T02:17:30.094Z,88.10
2018-06-11T02:18:01.482Z,88.10
2018-06-11T02:18:32.874Z,88.10
2018-06-11T02:19:04.258Z,88.10
2018-06-11T02:19:35.637Z,88.10
2018-06-11T02:20:07.028Z,88.10
2018-06-11T02:20:38.413Z,88.10
2018-06-11T02:21:09.804Z,88.10
2018-06-11T02:21:41.237Z,88.10
2018-06-11T02:22:12.643Z,88.10
2018-06-11T02:22:44.033Z,88.10
2018-06-11T02:23:15.419Z,88.10
2018-06-11T02:23:46.804Z,88.10
2018-06-11T02:24:18.188Z,88.10
2018-06-11T02:24:49.575Z,88.00
2018-06-11T02:25:20.964Z,88.10
2018-06-11T02:25:52.351Z,88.10
2018-06-11T02:26:23.799Z,88.10
2018-06-11T02:26:55.186Z,88.10
2018-06-11T02:27:26.568Z,88.10
2018-06-11T02:27:57.960Z,88.10
2018-06-11T02:29:01.117Z,88.10
2018-06-11T02:29:32.507Z,88.10
2018-06-11T02:30:03.898Z,88.10
2018-06-11T02:30:35.289Z,88.10
2018-06-11T02:31:06.677Z,88.00
2018-06-11T02:31:38.118Z,88.10
2018-06-11T02:32:09.505Z,88.50
2018-06-11T02:32:40.890Z,88.10
2018-06-11T02:33:12.288Z,88.10
2018-06-11T02:33:43.674Z,88.10
2018-06-11T02:34:15.068Z,88.10
2018-06-11T02:34:46.456Z,88.10
2018-06-11T02:35:17.843Z,88.10
2018-06-11T02:35:49.231Z,88.00
2018-06-11T02:36:20.623Z,88.10
2018-06-11T02:36:52.066Z,88.10
2018-06-11T02:37:23.460Z,88.90
2018-06-11T02:37:54.845Z,88.10
2018-06-11T02:38:26.231Z,88.10
2018-06-11T02:38:57.617Z,88.80
2018-06-11T02:39:28.994Z,88.10
2018-06-11T02:40:00.378Z,88.80
2018-06-11T02:40:31.773Z,88.10
2018-06-11T02:41:03.166Z,88.10
2018-06-11T02:41:34.571Z,88.00
2018-06-11T02:42:06.013Z,88.10
2018-06-11T02:42:37.403Z,88.10
2018-06-11T02:43:08.790Z,88.00
2018-06-11T02:43:40.176Z,88.80
2018-06-11T02:44:11.565Z,88.00
2018-06-11T02:44:42.994Z,88.10
2018-06-11T02:45:14.390Z,88.00
2018-06-11T02:45:45.783Z,88.00
2018-06-11T02:46:17.167Z,88.00
2018-06-11T02:46:48.604Z,88.00
2018-06-11T02:47:19.985Z,88.10
2018-06-11T02:47:51.376Z,88.00
2018-06-11T02:48:22.770Z,88.10
2018-06-11T02:48:54.156Z,88.10
2018-06-11T02:49:25.538Z,88.10
2018-06-11T02:49:56.925Z,88.10
2018-06-11T02:50:28.317Z,88.10
2018-06-11T02:50:59.706Z,88.10
2018-06-11T02:51:31.098Z,88.10
2018-06-11T02:52:02.549Z,88.10
2018-06-11T02:52:33.932Z,88.10
2018-06-11T02:53:05.309Z,88.10
2018-06-11T02:53:36.700Z,88.10
2018-06-11T02:54:08.098Z,88.00
2018-06-11T02:54:39.482Z,88.00
2018-06-11T02:55:10.869Z,88.10
2018-06-11T02:55:42.246Z,88.10
2018-06-11T02:56:13.629Z,88.10
2018-06-11T02:56:45.009Z,88.00
2018-06-11T02:57:16.466Z,88.00
2018-06-11T02:57:47.849Z,88.00
2018-06-11T02:58:19.238Z,88.10
2018-06-11T02:58:50.622Z,88.10
2018-06-11T02:59:22.006Z,88.00
2018-06-11T02:59:53.395Z,88.00
2018-06-11T03:00:24.787Z,88.00
2018-06-11T03:00:56.178Z,88.00
2018-06-11T03:01:27.574Z,88.00
2018-06-11T03:01:58.974Z,88.00
2018-06-11T03:02:30.424Z,88.10
2018-06-11T03:03:01.818Z,88.10
2018-06-11T03:03:33.205Z,88.00
2018-06-11T03:04:04.591Z,88.00
2018-06-11T03:04:35.979Z,88.00
2018-06-11T03:05:07.359Z,88.10
2018-06-11T03:05:38.750Z,88.00
2018-06-11T03:06:10.130Z,88.10
2018-06-11T03:06:41.510Z,88.00
2018-06-11T03:07:12.958Z,88.00
2018-06-11T03:07:44.339Z,88.00
2018-06-11T03:08:15.726Z,88.10
2018-06-11T03:08:47.115Z,88.00
2018-06-11T03:09:18.507Z,88.10
2018-06-11T03:09:49.886Z,88.00
2018-06-11T03:10:21.278Z,88.10
2018-06-11T03:10:52.660Z,88.00
2018-06-11T03:11:24.059Z,88.10
2018-06-11T03:11:55.446Z,88.10
2018-06-11T03:12:26.891Z,88.00
2018-06-11T03:12:58.284Z,88.10
2018-06-11T03:13:29.685Z,88.10
2018-06-11T03:14:01.074Z,88.00
2018-06-11T03:14:32.458Z,88.00
2018-06-11T03:15:03.848Z,88.00
2018-06-11T03:15:35.302Z,88.00
2018-06-11T03:16:06.669Z,88.00
2018-06-11T03:16:38.057Z,88.00
2018-06-11T03:17:09.446Z,88.00
2018-06-11T03:17:40.890Z,88.00
2018-06-11T03:18:12.270Z,88.00
2018-06-11T03:18:43.653Z,88.00
2018-06-11T03:19:15.035Z,88.10
2018-06-11T03:19:46.422Z,88.00
2018-06-11T03:20:17.816Z,88.00
2018-06-11T03:20:49.195Z,88.00
2018-06-11T03:21:20.608Z,88.00
2018-06-11T03:21:51.996Z,88.00
2018-06-11T03:22:23.436Z,88.00
2018-06-11T03:22:54.817Z,88.00
2018-06-11T03:23:26.196Z,88.00
2018-06-11T03:23:57.585Z,88.00
2018-06-11T03:24:28.977Z,88.00
2018-06-11T03:25:00.359Z,88.00
2018-06-11T03:25:31.747Z,88.10
2018-06-11T03:26:03.125Z,88.00
2018-06-11T03:26:34.512Z,88.00
2018-06-11T03:27:05.898Z,88.00
2018-06-11T03:27:37.338Z,88.00
2018-06-11T03:28:08.725Z,88.10
2018-06-11T03:28:40.114Z,88.00
2018-06-11T03:29:11.500Z,88.00
2018-06-11T03:29:42.894Z,88.10
2018-06-11T03:30:14.279Z,88.00
2018-06-11T03:30:45.658Z,88.00
2018-06-11T03:31:17.046Z,88.00
2018-06-11T03:32:20.194Z,88.00
2018-06-11T03:32:51.637Z,88.00
2018-06-11T03:33:23.018Z,88.10
2018-06-11T03:33:54.398Z,88.00
2018-06-11T03:34:25.791Z,88.10
2018-06-11T03:34:57.181Z,88.00
2018-06-11T03:35:28.567Z,88.00
2018-06-11T03:35:59.954Z,88.00
2018-06-11T03:36:31.338Z,88.00
2018-06-11T03:37:02.729Z,88.00
2018-06-11T03:37:34.190Z,88.10
2018-06-11T03:38:05.577Z,88.00
2018-06-11T03:38:36.959Z,88.00
2018-06-11T03:39:08.345Z,88.00
2018-06-11T03:39:39.731Z,88.00
2018-06-11T03:40:11.113Z,88.00
2018-06-11T03:40:42.504Z,88.00
2018-06-11T03:41:13.890Z,87.70
2018-06-11T03:41:45.274Z,88.00
2018-06-11T03:42:48.484Z,88.00
2018-06-11T03:43:19.873Z,88.00
2018-06-11T03:43:51.256Z,88.00
2018-06-11T03:44:22.643Z,88.00
2018-06-11T03:44:54.025Z,88.00
2018-06-11T03:45:25.414Z,88.00
2018-06-11T03:45:56.802Z,88.00
2018-06-11T03:46:28.195Z,88.00
2018-06-11T03:46:59.587Z,88.00
2018-06-11T03:47:30.975Z,88.00
2018-06-11T03:48:02.413Z,88.00
2018-06-11T03:48:33.799Z,88.10
2018-06-11T03:49:05.185Z,88.00
2018-06-11T03:49:36.574Z,88.00
2018-06-11T03:50:07.958Z,88.00
2018-06-11T03:50:39.362Z,88.00
2018-06-11T03:51:10.754Z,88.00
2018-06-11T03:51:42.151Z,88.00
2018-06-11T03:52:13.538Z,88.00
2018-06-11T03:52:44.927Z,88.00
2018-06-11T03:53:16.366Z,88.00
2018-06-11T03:53:47.748Z,88.00
2018-06-11T03:54:19.133Z,88.90
2018-06-11T03:54:50.518Z,88.00
2018-06-11T03:55:21.907Z,88.00
2018-06-11T03:55:53.292Z,88.00
2018-06-11T03:56:24.688Z,88.00
2018-06-11T03:56:56.073Z,88.00
2018-06-11T03:57:27.464Z,88.00
2018-06-11T03:57:58.897Z,88.00
2018-06-11T03:58:30.278Z,88.00
2018-06-11T03:59:01.666Z,88.00
2018-06-11T04:00:04.823Z,88.00
2018-06-11T04:00:36.221Z,88.00
2018-06-11T04:01:07.605Z,87.90
2018-06-11T04:01:38.997Z,88.00
2018-06-11T04:02:10.381Z,88.00
2018-06-11T04:02:41.763Z,87.90
2018-06-11T04:03:13.154Z,88.70
2018-06-11T04:03:44.538Z,87.90
2018-06-11T04:04:15.931Z,87.90
2018-06-11T04:04:47.310Z,87.90
2018-06-11T04:05:18.699Z,87.90
2018-06-11T04:05:50.085Z,87.80
2018-06-11T04:06:21.467Z,87.90
2018-06-11T04:06:52.850Z,87.90
2018-06-11T04:07:24.241Z,87.90
2018-06-11T04:07:55.635Z,87.80
2018-06-11T04:08:27.081Z,87.90
2018-06-11T04:08:58.476Z,87.90
2018-06-11T04:09:29.860Z,87.90
2018-06-11T04:10:01.249Z,88.00
2018-06-11T04:10:32.635Z,87.90
2018-06-11T04:11:04.069Z,87.90
2018-06-11T04:11:35.454Z,88.00
2018-06-11T04:12:06.838Z,88.00
2018-06-11T04:12:38.221Z,88.00
2018-06-11T04:13:09.609Z,87.90
2018-06-11T04:13:41.055Z,87.90
2018-06-11T04:14:12.452Z,87.80
2018-06-11T04:14:43.842Z,87.90
2018-06-11T04:15:15.228Z,88.00
2018-06-11T04:15:46.615Z,87.90
2018-06-11T04:16:17.997Z,88.00
2018-06-11T04:16:49.379Z,88.00
2018-06-11T04:17:20.763Z,87.90
2018-06-11T04:17:52.149Z,87.90
2018-06-11T04:18:23.620Z,87.90
2018-06-11T04:18:55.002Z,87.90
2018-06-11T04:19:26.443Z,87.90
2018-06-11T04:19:57.862Z,87.90
2018-06-11T04:20:29.252Z,87.90
2018-06-11T04:21:00.634Z,87.90
2018-06-11T04:21:32.026Z,87.90
2018-06-11T04:22:03.441Z,87.90
2018-06-11T04:22:34.839Z,88.70
2018-06-11T04:23:06.235Z,87.90
2018-06-11T04:23:37.687Z,87.90
2018-06-11T04:24:40.843Z,88.00
2018-06-11T04:25:12.227Z,88.00
2018-06-11T04:25:43.623Z,87.90
2018-06-11T04:26:15.006Z,88.00
2018-06-11T04:26:46.397Z,88.00
2018-06-11T04:27:17.780Z,88.00
2018-06-11T04:27:49.162Z,88.00
2018-06-11T04:28:20.542Z,88.00
2018-06-11T04:28:51.994Z,88.00
2018-06-11T04:29:23.378Z,88.00
2018-06-11T04:29:54.762Z,88.00
2018-06-11T04:30:26.145Z,87.50
2018-06-11T04:30:57.531Z,88.00
2018-06-11T04:31:28.926Z,87.90
2018-06-11T04:32:00.310Z,88.00
2018-06-11T04:32:31.693Z,87.90
2018-06-11T04:33:03.080Z,88.00
2018-06-11T04:33:34.471Z,87.90
2018-06-11T04:34:05.919Z,88.00
2018-06-11T04:34:37.312Z,88.00
2018-06-11T04:35:08.696Z,87.90
2018-06-11T04:35:40.084Z,87.90
2018-06-11T04:36:11.483Z,87.90
2018-06-11T04:36:42.864Z,87.90
2018-06-11T04:37:14.254Z,87.90
2018-06-11T04:37:45.647Z,87.90
2018-06-11T04:38:17.033Z,87.90
2018-06-11T04:38:48.496Z,88.00
2018-06-11T04:39:19.885Z,88.00
2018-06-11T04:39:51.275Z,88.00
2018-06-11T04:40:22.659Z,88.00
2018-06-11T04:40:54.047Z,87.90
2018-06-11T04:41:25.432Z,87.90
2018-06-11T04:41:56.819Z,87.70
2018-06-11T04:42:28.203Z,87.70
2018-06-11T04:42:59.588Z,87.50
2018-06-11T04:43:30.973Z,87.70
2018-06-11T04:44:02.410Z,87.70
2018-06-11T04:44:33.792Z,87.70
2018-06-11T04:45:05.170Z,87.60
2018-06-11T04:45:36.559Z,87.70
2018-06-11T04:46:07.941Z,87.30
2018-06-11T04:46:39.327Z,87.20
2018-06-11T04:47:10.713Z,87.10
2018-06-11T04:47:42.095Z,87.10
2018-06-11T04:48:13.477Z,87.20
2018-06-11T04:48:44.864Z,87.00
2018-06-11T04:49:16.310Z,87.80
2018-06-11T04:49:47.694Z,87.00
2018-06-11T04:50:19.081Z,87.10
2018-06-11T04:50:50.467Z,87.00
2018-06-11T04:51:21.855Z,87.10
2018-06-11T04:51:53.242Z,87.90
2018-06-11T04:52:24.630Z,87.10
2018-06-11T04:52:56.024Z,87.10
2018-06-11T04:53:27.416Z,87.10
2018-06-11T04:53:58.798Z,87.10
2018-06-11T04:54:30.241Z,87.10
2018-06-11T04:55:01.695Z,87.00
2018-06-11T04:55:33.058Z,87.10
2018-06-11T04:56:04.444Z,87.00
2018-06-11T04:56:35.843Z,87.00
2018-06-11T04:57:07.240Z,87.10
2018-06-11T04:57:38.627Z,87.10
2018-06-11T04:58:10.009Z,87.20
2018-06-11T04:58:41.394Z,87.10
2018-06-11T04:59:12.843Z,87.20
2018-06-11T04:59:44.234Z,87.20
2018-06-11T05:00:15.622Z,87.20
2018-06-11T05:00:47.009Z,87.30
2018-06-11T05:01:18.403Z,87.30
2018-06-11T05:01:49.792Z,87.30
2018-06-11T05:02:21.179Z,87.30
2018-06-11T05:02:52.565Z,87.30
2018-06-11T05:03:23.958Z,87.30
2018-06-11T05:03:55.350Z,87.20
2018-06-11T05:04:26.789Z,87.30
2018-06-11T05:04:58.174Z,87.30
2018-06-11T05:05:29.560Z,87.40
2018-06-11T05:06:00.948Z,87.30
2018-06-11T05:06:32.344Z,87.40
2018-06-11T05:07:03.740Z,87.30
2018-06-11T05:07:35.128Z,88.10
2018-06-11T05:08:38.311Z,87.40
2018-06-11T05:09:09.693Z,87.40
2018-06-11T05:09:41.149Z,87.40
2018-06-11T05:10:12.533Z,87.40
2018-06-11T05:10:43.917Z,87.40
2018-06-11T05:11:15.306Z,87.40
2018-06-11T05:11:46.695Z,87.40
2018-06-11T05:12:18.078Z,87.40
2018-06-11T05:12:49.457Z,87.40
2018-06-11T05:13:20.837Z,87.40
2018-06-11T05:13:52.228Z,87.40
2018-06-11T05:14:23.665Z,87.40
2018-06-11T05:14:55.047Z,87.40
2018-06-11T05:15:26.469Z,87.40
2018-06-11T05:15:57.863Z,87.40
2018-06-11T05:16:29.252Z,87.40
2018-06-11T05:17:00.639Z,87.40
2018-06-11T05:17:32.021Z,87.40
2018-06-11T05:18:03.405Z,87.40
2018-06-11T05:18:34.788Z,87.40
2018-06-11T05:19:06.174Z,87.40
2018-06-11T05:19:37.626Z,87.40
2018-06-11T05:20:09.066Z,87.40
2018-06-11T05:20:40.468Z,87.40
2018-06-11T05:21:11.855Z,87.40
2018-06-11T05:21:43.243Z,87.40
2018-06-11T05:22:14.621Z,87.50
2018-06-11T05:22:45.998Z,87.40
2018-06-11T05:23:17.386Z,87.40
2018-06-11T05:23:48.771Z,87.50
2018-06-11T05:24:20.158Z,87.40
2018-06-11T05:24:51.605Z,87.50
2018-06-11T05:25:22.992Z,87.50
2018-06-11T05:25:54.373Z,87.50
2018-06-11T05:26:25.775Z,87.50
2018-06-11T05:26:57.160Z,87.50
2018-06-11T05:27:28.546Z,87.50
2018-06-11T05:27:59.937Z,87.60
2018-06-11T05:28:31.328Z,87.50
2018-06-11T05:29:02.718Z,87.50
2018-06-11T05:29:34.101Z,87.50
2018-06-11T05:30:05.552Z,87.50
2018-06-11T05:30:36.945Z,87.50
2018-06-11T05:31:08.333Z,87.50
2018-06-11T05:31:39.722Z,87.50
2018-06-11T05:32:11.104Z,87.50
2018-06-11T05:32:42.484Z,87.50
2018-06-11T05:33:13.870Z,87.50
2018-06-11T05:33:45.248Z,87.60
2018-06-11T05:34:16.637Z,87.60
2018-06-11T05:34:48.078Z,87.60
2018-06-11T05:35:19.482Z,87.60
2018-06-11T05:35:50.870Z,87.60
2018-06-11T05:36:22.254Z,87.60
2018-06-11T05:36:53.645Z,87.60
2018-06-11T05:37:25.035Z,87.60
2018-06-11T05:37:56.419Z,87.60
2018-06-11T05:38:27.809Z,87.60
2018-06-11T05:38:59.194Z,87.60
2018-06-11T05:39:30.573Z,87.60
2018-06-11T05:40:02.031Z,87.60
2018-06-11T05:40:33.429Z,87.60
2018-06-11T05:41:04.827Z,87.60
2018-06-11T05:41:36.218Z,87.60
2018-06-11T05:42:07.607Z,87.70
2018-06-11T05:42:38.998Z,87.70
2018-06-11T05:43:10.384Z,87.70
2018-06-11T05:43:41.765Z,87.70
2018-06-11T05:44:13.155Z,87.70
2018-06-11T05:44:44.543Z,87.70
2018-06-11T05:45:16.000Z,88.10
2018-06-11T05:45:47.388Z,87.70
2018-06-11T05:46:18.772Z,87.70
2018-06-11T05:46:50.154Z,87.70
2018-06-11T05:47:21.544Z,87.70
2018-06-11T05:47:52.982Z,87.70
2018-06-11T05:48:24.366Z,87.70
2018-06-11T05:48:55.754Z,87.80
2018-06-11T05:49:27.140Z,87.70
2018-06-11T05:49:58.526Z,87.70
2018-06-11T05:50:29.915Z,87.70
2018-06-11T05:51:01.308Z,87.70
2018-06-11T05:51:32.694Z,87.70
2018-06-11T05:52:04.075Z,87.80
2018-06-11T05:52:35.458Z,87.70
2018-06-11T05:53:06.846Z,87.70
2018-06-11T05:53:38.226Z,87.70
2018-06-11T05:54:09.610Z,87.70
2018-06-11T05:54:40.990Z,87.70
2018-06-11T05:55:12.381Z,87.70
2018-06-11T05:55:43.824Z,87.80
2018-06-11T05:56:15.207Z,87.70
2018-06-11T05:56:46.599Z,87.70
2018-06-11T05:57:17.990Z,87.80
2018-06-11T05:57:49.376Z,87.80
2018-06-11T05:58:20.754Z,87.80
2018-06-11T05:58:52.137Z,87.70
2018-06-11T05:59:23.521Z,87.70
2018-06-11T05:59:54.901Z,87.70
2018-06-11T06:00:26.353Z,87.70
2018-06-11T06:00:57.745Z,87.80
2018-06-11T06:01:29.139Z,87.80
2018-06-11T06:02:00.518Z,87.80
2018-06-11T06:02:31.896Z,87.80
2018-06-11T06:03:03.284Z,87.70
2018-06-11T06:03:34.668Z,87.70
2018-06-11T06:04:06.062Z,87.80
2018-06-11T06:04:37.459Z,87.80
2018-06-11T06:05:08.847Z,87.80
2018-06-11T06:05:40.299Z,87.70
2018-06-11T06:06:11.687Z,87.80
2018-06-11T06:06:43.069Z,87.80
2018-06-11T06:07:14.458Z,87.80
2018-06-11T06:07:45.853Z,87.80
2018-06-11T06:08:17.240Z,87.80
2018-06-11T06:08:48.646Z,87.80
2018-06-11T06:09:20.054Z,87.80
2018-06-11T06:09:51.442Z,87.80
2018-06-11T06:10:22.850Z,87.80
2018-06-11T06:10:54.290Z,87.80
2018-06-11T06:11:25.681Z,87.80
2018-06-11T06:11:57.068Z,87.70
2018-06-11T06:12:28.442Z,87.70
2018-06-11T06:12:59.827Z,87.70
2018-06-11T06:13:31.216Z,87.70
2018-06-11T06:14:02.602Z,87.70
2018-06-11T06:14:33.989Z,87.70
2018-06-11T06:15:05.378Z,87.70
2018-06-11T06:15:36.769Z,87.70
2018-06-11T06:16:08.219Z,87.70
2018-06-11T06:16:39.606Z,87.70
2018-06-11T06:17:10.995Z,87.70
2018-06-11T06:17:42.387Z,87.70
2018-06-11T06:18:45.542Z,87.70
2018-06-11T06:19:16.935Z,87.70
2018-06-11T06:19:48.316Z,87.70
2018-06-11T06:20:19.702Z,87.70
2018-06-11T06:20:51.084Z,87.70
2018-06-11T06:21:22.529Z,87.70
2018-06-11T06:21:53.918Z,87.70
2018-06-11T06:22:25.311Z,87.70
2018-06-11T06:22:56.700Z,87.70
2018-06-11T06:23:28.089Z,87.70
2018-06-11T06:23:59.474Z,87.60
2018-06-11T06:24:30.862Z,87.60
2018-06-11T06:25:02.242Z,87.60
2018-06-11T06:25:33.619Z,87.70
2018-06-11T06:26:05.003Z,87.70
2018-06-11T06:26:36.513Z,88.00
2018-06-11T06:27:07.891Z,87.70
2018-06-11T06:27:39.274Z,87.70
2018-06-11T06:28:10.669Z,87.60
2018-06-11T06:28:42.055Z,87.70
2018-06-11T06:29:13.439Z,87.70
2018-06-11T06:29:44.823Z,87.60
2018-06-11T06:30:16.206Z,87.60
2018-06-11T06:30:47.598Z,87.70
2018-06-11T06:31:19.053Z,87.60
2018-06-11T06:31:50.441Z,87.70
2018-06-11T06:32:21.831Z,87.70
2018-06-11T06:32:53.216Z,87.70
2018-06-11T06:33:24.600Z,87.60
2018-06-11T06:33:55.991Z,87.60
2018-06-11T06:34:27.374Z,87.60
2018-06-11T06:34:58.799Z,87.60
2018-06-11T06:35:30.190Z,87.60
2018-06-11T06:36:01.583Z,87.60
2018-06-11T06:36:33.026Z,87.60
2018-06-11T06:37:04.413Z,87.60
2018-06-11T06:37:35.801Z,87.60
2018-06-11T06:38:07.231Z,87.50
2018-06-11T06:38:38.616Z,87.50
2018-06-11T06:39:10.006Z,87.60
2018-06-11T06:39:41.434Z,87.60
2018-06-11T06:40:12.834Z,87.60
2018-06-11T06:40:44.214Z,87.60
2018-06-11T06:41:15.606Z,88.40
2018-06-11T06:41:47.048Z,87.60
2018-06-11T06:42:18.430Z,88.50
2018-06-11T06:42:49.820Z,88.20
2018-06-11T06:43:21.211Z,87.60
2018-06-11T06:43:52.596Z,88.40
2018-06-11T06:44:23.986Z,87.60
2018-06-11T06:44:55.388Z,87.60
2018-06-11T06:45:26.765Z,87.60
2018-06-11T06:45:58.149Z,87.60
2018-06-11T06:46:29.534Z,87.60
2018-06-11T06:47:00.975Z,87.60
2018-06-11T06:47:32.362Z,87.60
2018-06-11T06:48:03.794Z,87.60
2018-06-11T06:48:35.177Z,87.60
2018-06-11T06:49:06.574Z,87.60
2018-06-11T06:49:37.965Z,87.50
2018-06-11T06:50:09.361Z,87.60